Time;durP1;ratioP1;P1;durP2;ratioP2;P2;SDS_P1;SDS_P2;PMS_P1;PMS_P2;Temp;Humidity;BMP_temperature;BMP_pressure;BME280_temperature;BME280_humidity;BME280_pressure;Samples;Min_cycle;Max_cycle;Signal;HPM_P1;HPM_P2
2023/03/21 00:00:37;;;;;;;12.53;10.03;;;9.30;99.90;9.20;100675.00;;;;4896115;28;93313;-68
2023/03/21 00:03:03;;;;;;;18.93;10.60;;;9.30;99.90;9.20;100662.00;;;;4890834;28;118105;-68
2023/03/21 00:05:29;;;;;;;17.53;9.93;;;9.30;99.90;9.20;100671.00;;;;4894805;28;88922;-66
2023/03/21 00:07:55;;;;;;;16.93;10.20;;;9.30;99.90;9.20;100672.00;;;;4897011;28;90589;-66
2023/03/21 00:10:21;;;;;;;11.93;8.63;;;9.30;99.90;9.20;100668.00;;;;4895697;28;95754;-67
2023/03/21 00:12:54;;;;;;;15.47;9.20;;;9.30;99.90;9.20;100675.00;;;;4893133;28;117105;-68
2023/03/21 00:15:19;;;;;;;14.10;9.07;;;9.30;99.90;9.20;100673.00;;;;4894929;28;89038;-67
2023/03/21 00:17:49;;;;;;;16.50;10.33;;;9.30;99.90;9.10;100657.00;;;;4894916;28;109813;-68
2023/03/21 00:20:15;;;;;;;18.60;9.67;;;9.20;99.90;9.10;100655.00;;;;4892653;28;88706;-68
2023/03/21 00:22:41;;;;;;;17.90;10.60;;;9.20;99.90;9.10;100660.00;;;;4892612;28;89054;-68
2023/03/21 00:25:26;;;;;;;23.03;9.97;;;9.10;99.90;9.00;100654.00;;;;4893866;28;91082;-68
2023/03/21 00:27:51;;;;;;;17.67;10.77;;;9.20;99.90;9.00;100662.00;;;;4887935;28;105359;-67
2023/03/21 00:30:17;;;;;;;17.60;10.23;;;9.10;99.90;9.00;100649.00;;;;4892188;28;107864;-66
2023/03/21 00:32:45;;;;;;;14.83;9.37;;;9.10;99.90;9.00;100643.00;;;;4894646;28;117920;-67
2023/03/21 00:35:11;;;;;;;18.97;10.93;;;9.10;99.90;9.00;100641.00;;;;4893631;28;111704;-67
2023/03/21 00:37:42;;;;;;;28.13;13.13;;;9.10;99.90;9.00;100646.00;;;;4893696;28;108746;-67
2023/03/21 00:40:09;;;;;;;12.87;9.10;;;9.10;99.90;9.00;100640.00;;;;4894290;28;107395;-68
2023/03/21 00:42:35;;;;;;;17.47;10.63;;;9.10;99.90;9.00;100642.00;;;;4890058;28;89062;-68
2023/03/21 00:45:03;;;;;;;20.87;11.80;;;9.10;99.90;8.90;100637.00;;;;4891074;28;118291;-68
2023/03/21 00:47:29;;;;;;;21.83;11.30;;;9.00;99.90;9.00;100641.00;;;;4894043;28;87755;-68
2023/03/21 00:49:54;;;;;;;15.87;11.33;;;9.10;99.90;8.90;100633.00;;;;4890381;28;108970;-69
2023/03/21 00:52:21;;;;;;;17.70;10.23;;;9.00;99.90;9.00;100635.00;;;;4895216;28;89288;-68
2023/03/21 00:54:46;;;;;;;15.40;9.80;;;9.10;99.90;9.00;100640.00;;;;4890723;28;88689;-68
2023/03/21 00:57:12;;;;;;;15.27;10.00;;;9.10;99.90;8.90;100632.00;;;;4891221;28;112418;-68
2023/03/21 00:59:38;;;;;;;14.20;10.10;;;9.00;99.90;9.00;100634.00;;;;4890223;28;107769;-68
2023/03/21 01:02:21;;;;;;;17.77;10.23;;;9.10;99.90;9.00;100636.00;;;;4890975;28;116953;-68
2023/03/21 01:04:48;;;;;;;17.20;10.03;;;9.10;99.90;9.00;100630.00;;;;4895037;28;88147;-68
2023/03/21 01:07:14;;;;;;;20.87;10.83;;;9.10;99.90;9.00;100624.00;;;;4893483;28;88061;-69
2023/03/21 01:09:40;;;;;;;15.87;9.90;;;9.10;99.90;9.00;100620.00;;;;4891017;28;108088;-68
2023/03/21 01:12:05;;;;;;;14.23;9.80;;;9.10;99.90;9.00;100621.00;;;;4889788;28;117287;-68
2023/03/21 01:14:31;;;;;;;17.93;10.43;;;9.10;99.90;9.00;100618.00;;;;4895560;28;88655;-68
2023/03/21 01:16:57;;;;;;;15.47;9.33;;;9.10;99.90;9.00;100614.00;;;;4893208;28;109494;-68
2023/03/21 01:19:25;;;;;;;18.47;10.73;;;9.10;99.90;9.00;100623.00;;;;4890479;28;106920;-69
2023/03/21 01:21:51;;;;;;;19.00;9.90;;;9.10;99.90;9.00;100620.00;;;;4893162;28;88996;-67
2023/03/21 01:24:17;;;;;;;21.73;9.93;;;9.10;99.90;9.00;100629.00;;;;4894347;28;117785;-67
2023/03/21 01:26:42;;;;;;;17.10;9.13;;;9.10;99.90;9.00;100630.00;;;;4895213;28;110571;-68
2023/03/21 01:29:08;;;;;;;17.93;10.00;;;9.10;99.90;9.00;100629.00;;;;4893122;28;108259;-68
2023/03/21 01:31:34;;;;;;;17.67;10.33;;;9.10;99.90;8.90;100632.00;;;;4891005;28;115387;-68
2023/03/21 01:33:59;;;;;;;13.93;9.83;;;9.10;99.90;8.90;100625.00;;;;4894154;28;95111;-68
2023/03/21 01:36:26;;;;;;;17.87;8.47;;;9.10;99.90;8.90;100629.00;;;;4895759;28;87690;-68
2023/03/21 01:38:52;;;;;;;18.70;10.30;;;9.10;99.90;8.90;100623.00;;;;4891234;28;107426;-67
2023/03/21 01:41:34;;;;;;;19.63;10.93;;;9.10;99.90;8.90;100625.00;;;;4888963;28;111165;-69
2023/03/21 01:44:00;;;;;;;16.77;9.60;;;9.00;99.90;8.90;100629.00;;;;4881304;28;87967;-69
2023/03/21 01:46:32;;;;;;;21.33;10.23;;;9.00;99.90;8.90;100629.00;;;;4892835;28;88984;-69
2023/03/21 01:49:24;;;;;;;16.60;9.90;;;9.00;99.90;8.90;100634.00;;;;4895081;28;88046;-69
2023/03/21 01:51:57;;;;;;;15.27;9.60;;;9.00;99.90;8.90;100633.00;;;;4904247;28;90243;-67
2023/03/21 01:54:27;;;;;;;13.90;9.87;;;9.00;99.90;8.90;100634.00;;;;4887722;28;87774;-67
2023/03/21 01:56:56;;;;;;;22.87;10.70;;;9.00;99.90;8.90;100633.00;;;;4894224;28;87941;-69
2023/03/21 01:59:50;;;;;;;13.07;9.13;;;9.00;99.90;8.90;100621.00;;;;4887543;28;87723;-68
2023/03/21 02:02:26;;;;;;;12.83;9.07;;;9.00;99.90;8.90;100627.00;;;;4892749;28;89692;-68
2023/03/21 02:04:54;;;;;;;13.33;10.10;;;9.00;99.90;8.90;100634.00;;;;4895096;28;98409;-68
2023/03/21 02:07:34;;;;;;;20.43;10.37;;;9.00;99.90;8.90;100629.00;;;;4895241;28;87739;-68
2023/03/21 02:10:03;;;;;;;22.23;11.03;;;9.00;99.90;8.90;100620.00;;;;4897190;28;87869;-67
2023/03/21 02:12:30;;;;;;;14.03;9.50;;;9.00;99.90;8.90;100621.00;;;;4896838;28;88927;-68
2023/03/21 02:14:56;;;;;;;14.83;8.93;;;9.00;99.90;8.90;100619.00;;;;4893153;28;108273;-68
2023/03/21 02:17:39;;;;;;;20.97;11.20;;;9.00;99.90;8.90;100614.00;;;;4897486;28;110024;-68
2023/03/21 02:20:41;;;;;;;14.27;8.87;;;9.00;99.90;8.80;100621.00;;;;4891118;28;87863;-68
2023/03/21 02:23:32;;;;;;;13.90;9.23;;;9.00;99.90;8.80;100610.00;;;;4895860;28;88121;-68
2023/03/21 02:26:44;;;;;;;12.87;8.83;;;9.00;99.90;8.80;100611.00;;;;4895715;28;87732;-68
2023/03/21 02:29:36;;;;;;;13.13;9.40;;;9.00;99.90;8.80;100601.00;;;;4895193;28;88335;-68
2023/03/21 02:32:26;;;;;;;16.03;10.07;;;8.90;99.90;8.80;100609.00;;;;4888675;28;101324;-68
2023/03/21 02:35:33;;;;;;;14.00;7.80;;;8.90;99.90;8.80;100598.00;;;;4893946;28;88482;-68
2023/03/21 02:38:10;;;;;;;18.83;10.90;;;9.00;99.90;8.80;100605.00;;;;4883985;28;89261;-68
2023/03/21 02:41:25;;;;;;;14.63;8.97;;;9.00;99.90;8.80;100605.00;;;;4888462;28;103139;-68
2023/03/21 02:43:57;;;;;;;14.73;9.43;;;9.00;99.90;8.80;100605.00;;;;4890350;28;88080;-68
2023/03/21 02:46:50;;;;;;;17.97;9.93;;;8.90;99.90;8.80;100603.00;;;;4893624;28;111431;-68
2023/03/21 02:49:30;;;;;;;12.77;9.27;;;9.00;99.90;8.80;100608.00;;;;4887422;28;90143;-68
2023/03/21 02:51:58;;;;;;;18.50;8.87;;;9.00;99.90;8.80;100604.00;;;;4896464;28;87967;-68
2023/03/21 02:54:26;;;;;;;15.23;8.77;;;9.00;99.90;8.90;100612.00;;;;4894618;28;109819;-67
2023/03/21 02:56:55;;;;;;;22.30;11.07;;;9.00;99.90;8.90;100609.00;;;;4890563;28;118247;-68
2023/03/21 02:59:24;;;;;;;14.27;10.13;;;9.00;99.90;8.80;100619.00;;;;4892873;28;88392;-67
2023/03/21 03:01:55;;;;;;;14.63;9.20;;;9.00;99.90;8.80;100613.00;;;;4892339;28;87843;-67
2023/03/21 03:04:26;;;;;;;16.43;10.00;;;9.00;99.90;8.80;100609.00;;;;4895525;28;88452;-67
2023/03/21 03:07:28;;;;;;;19.40;10.37;;;8.90;99.90;8.80;100604.00;;;;4895753;28;88894;-67
2023/03/21 03:10:35;;;;;;;13.00;9.90;;;8.90;99.90;8.70;100623.00;;;;4889780;28;109467;-67
2023/03/21 03:13:52;;;;;;;14.47;10.23;;;8.90;99.90;8.70;100613.00;;;;4894175;28;87737;-68
2023/03/21 03:17:07;;;;;;;17.40;10.57;;;8.90;99.90;8.70;100612.00;;;;4897564;28;88074;-68
2023/03/21 03:19:47;;;;;;;17.27;10.50;;;8.90;99.90;8.70;100612.00;;;;4894996;28;87822;-69
2023/03/21 03:22:27;;;;;;;15.53;10.40;;;8.80;99.90;8.70;100614.00;;;;4893970;28;94544;-69
2023/03/21 03:25:05;;;;;;;14.60;9.63;;;8.80;99.90;8.60;100601.00;;;;4891764;28;98992;-69
2023/03/21 03:27:38;;;;;;;14.37;9.80;;;8.80;99.90;8.70;100621.00;;;;4888027;28;87091;-69
2023/03/21 03:30:06;;;;;;;12.27;8.90;;;8.80;99.90;8.70;100608.00;;;;4892067;28;87903;-69
2023/03/21 03:32:47;;;;;;;16.03;9.83;;;8.80;99.90;8.70;100618.00;;;;4892219;28;88817;-70
2023/03/21 03:35:18;;;;;;;18.10;10.07;;;8.80;99.90;8.70;100616.00;;;;4891675;28;97032;-70
2023/03/21 03:37:52;;;;;;;13.57;10.23;;;8.80;99.90;8.60;100621.00;;;;4895543;28;87873;-70
2023/03/21 03:40:28;;;;;;;14.27;9.27;;;8.80;99.90;8.60;100616.00;;;;4893328;28;96676;-70
2023/03/21 03:43:09;;;;;;;17.37;9.77;;;8.70;99.90;8.50;100617.00;;;;4890008;28;87891;-69
2023/03/21 03:45:43;;;;;;;16.20;10.93;;;8.60;99.90;8.40;100612.00;;;;4891465;28;88068;-70
2023/03/21 03:48:24;;;;;;;19.83;10.03;;;8.60;99.90;8.40;100611.00;;;;4892626;28;89239;-69
2023/03/21 03:51:09;;;;;;;19.93;11.37;;;8.60;99.90;8.30;100619.00;;;;4894541;28;87982;-69
2023/03/21 03:53:57;;;;;;;16.03;10.60;;;8.50;99.90;8.30;100615.00;;;;4892653;28;88034;-69
2023/03/21 03:56:24;;;;;;;20.03;11.20;;;8.40;99.90;8.30;100612.00;;;;4891106;28;87906;-69
2023/03/21 03:58:50;;;;;;;13.93;10.43;;;8.40;99.90;8.20;100609.00;;;;4894938;28;87816;-68
2023/03/21 04:01:16;;;;;;;18.93;11.60;;;8.30;99.90;8.20;100605.00;;;;4892864;28;110373;-69
2023/03/21 04:03:47;;;;;;;18.03;10.97;;;8.30;99.90;8.20;100614.00;;;;4896146;28;87935;-68
2023/03/21 04:06:13;;;;;;;17.63;10.53;;;8.30;99.90;8.20;100608.00;;;;4896022;28;87852;-68
2023/03/21 04:08:38;;;;;;;18.37;10.10;;;8.30;99.90;8.10;100598.00;;;;4895232;28;87958;-68
2023/03/21 04:11:05;;;;;;;16.53;11.90;;;8.30;99.90;8.10;100602.00;;;;4893030;28;117618;-68
2023/03/21 04:13:31;;;;;;;18.27;11.00;;;8.30;99.90;8.10;100607.00;;;;4891159;28;89008;-68
2023/03/21 04:15:57;;;;;;;13.33;10.47;;;8.30;99.90;8.10;100601.00;;;;4892687;28;87970;-68
2023/03/21 04:18:23;;;;;;;17.07;10.10;;;8.20;99.90;8.10;100606.00;;;;4894548;28;87322;-68
2023/03/21 04:20:50;;;;;;;14.27;9.47;;;8.40;99.90;8.10;100606.00;;;;4893162;28;87890;-68
2023/03/21 04:23:18;;;;;;;19.53;10.67;;;8.20;99.90;8.10;100609.00;;;;4895966;28;88440;-68
2023/03/21 04:25:44;;;;;;;13.10;9.47;;;8.20;99.90;8.10;100615.00;;;;4894365;28;88783;-68
2023/03/21 04:28:11;;;;;;;15.80;9.23;;;8.20;99.90;8.10;100620.00;;;;4891113;28;91247;-68
2023/03/21 04:30:37;;;;;;;17.43;10.13;;;8.20;99.90;8.10;100609.00;;;;4891738;28;107515;-68
2023/03/21 04:33:04;;;;;;;15.43;10.87;;;8.20;99.90;8.10;100621.00;;;;4892545;28;88810;-67
2023/03/21 04:35:29;;;;;;;16.10;9.83;;;8.30;99.90;8.10;100612.00;;;;4893535;28;88056;-67
2023/03/21 04:37:55;;;;;;;20.40;11.00;;;8.60;99.90;8.10;100605.00;;;;4894146;28;108673;-67
2023/03/21 04:40:23;;;;;;;16.77;10.60;;;8.20;99.90;8.10;100614.00;;;;4895266;28;90668;-67
2023/03/21 04:42:49;;;;;;;16.73;11.30;;;8.20;99.90;8.10;100601.00;;;;4894713;28;87949;-67
2023/03/21 04:45:16;;;;;;;18.77;11.30;;;8.20;99.90;8.10;100608.00;;;;4891677;28;90720;-66
2023/03/21 04:47:42;;;;;;;13.03;9.97;;;8.20;99.90;8.10;100616.00;;;;4894132;28;87616;-66
2023/03/21 04:50:09;;;;;;;17.97;10.57;;;8.20;99.90;8.10;100612.00;;;;4889332;28;119705;-67
2023/03/21 04:52:35;;;;;;;16.27;10.13;;;8.20;99.90;8.10;100614.00;;;;4893849;28;89593;-66
2023/03/21 04:55:01;;;;;;;19.73;12.67;;;8.20;99.90;8.10;100607.00;;;;4894183;28;87840;-66
2023/03/21 04:57:27;;;;;;;16.93;10.83;;;8.20;99.90;8.10;100603.00;;;;4891363;28;87815;-67
2023/03/21 04:59:52;;;;;;;20.00;12.10;;;8.30;99.90;8.10;100605.00;;;;4894047;28;117644;-67
2023/03/21 05:02:18;;;;;;;18.00;11.40;;;8.20;99.90;8.10;100612.00;;;;4893857;28;117494;-67
2023/03/21 05:04:44;;;;;;;19.37;11.27;;;8.60;99.90;8.10;100609.00;;;;4890123;28;111312;-67
2023/03/21 05:07:10;;;;;;;18.40;10.20;;;8.20;99.90;8.10;100615.00;;;;4893899;28;87100;-67
2023/03/21 05:09:36;;;;;;;19.00;11.03;;;8.20;99.90;8.10;100612.00;;;;4896157;28;97677;-66
2023/03/21 05:12:03;;;;;;;17.63;12.07;;;8.20;99.90;8.10;100618.00;;;;4894943;28;88976;-66
2023/03/21 05:14:29;;;;;;;16.50;10.27;;;8.20;99.90;8.10;100613.00;;;;4892319;28;88936;-67
2023/03/21 05:16:56;;;;;;;18.67;10.70;;;8.20;99.90;8.10;100618.00;;;;4893538;28;87803;-66
2023/03/21 05:19:35;;;;;;;13.47;10.23;;;8.30;99.90;8.10;100613.00;;;;4889849;28;89024;-66
2023/03/21 05:22:09;;;;;;;18.00;10.90;;;8.20;99.90;8.10;100611.00;;;;4887282;28;88018;-67
2023/03/21 05:24:40;;;;;;;16.10;10.50;;;8.20;99.90;8.10;100623.00;;;;4893736;28;93343;-67
2023/03/21 05:27:07;;;;;;;16.17;10.47;;;8.20;99.90;8.00;100612.00;;;;4892616;28;87829;-67
2023/03/21 05:29:33;;;;;;;18.70;11.50;;;8.20;99.90;8.00;100610.00;;;;4899629;28;88499;-67
2023/03/21 05:31:59;;;;;;;20.17;12.23;;;8.20;99.90;8.00;100614.00;;;;4894467;28;108081;-66
2023/03/21 05:34:26;;;;;;;19.97;11.33;;;8.20;99.90;8.00;100615.00;;;;4889631;28;103311;-66
2023/03/21 05:36:53;;;;;;;19.23;11.47;;;8.20;99.90;8.00;100613.00;;;;4890849;28;88104;-66
2023/03/21 05:39:19;;;;;;;21.50;12.47;;;8.10;99.90;8.00;100615.00;;;;4888566;28;89791;-66
2023/03/21 05:41:45;;;;;;;16.47;10.93;;;8.10;99.90;7.90;100614.00;;;;4892556;28;118757;-66
2023/03/21 05:44:10;;;;;;;18.03;11.87;;;8.10;99.90;7.90;100614.00;;;;4893541;28;108672;-67
2023/03/21 05:46:36;;;;;;;17.60;11.33;;;8.10;99.90;7.90;100608.00;;;;4886223;28;94738;-65
2023/03/21 05:49:02;;;;;;;16.00;10.80;;;8.20;99.90;7.90;100607.00;;;;4892372;28;100314;-65
2023/03/21 05:51:27;;;;;;;16.53;10.80;;;8.00;99.90;7.90;100612.00;;;;4888151;28;116756;-66
2023/03/21 05:53:53;;;;;;;17.17;10.63;;;8.10;99.90;7.90;100607.00;;;;4893343;28;111724;-65
2023/03/21 05:56:19;;;;;;;24.53;12.00;;;8.00;99.90;7.90;100611.00;;;;4892573;28;86974;-65
2023/03/21 05:58:45;;;;;;;17.43;12.37;;;8.00;99.90;7.90;100612.00;;;;4891814;28;107291;-66
2023/03/21 06:01:11;;;;;;;22.00;12.77;;;8.00;99.90;7.90;100610.00;;;;4891283;28;88110;-66
2023/03/21 06:03:37;;;;;;;19.37;12.60;;;8.00;99.90;7.90;100610.00;;;;4892490;28;95910;-66
2023/03/21 06:06:03;;;;;;;16.87;11.30;;;8.10;99.90;8.00;100619.00;;;;4889754;28;102005;-65
2023/03/21 06:08:30;;;;;;;20.10;11.77;;;8.10;99.90;8.00;100616.00;;;;4894309;28;88416;-65
2023/03/21 06:10:56;;;;;;;18.37;11.30;;;8.10;99.90;8.00;100620.00;;;;4890869;28;88908;-67
2023/03/21 06:13:21;;;;;;;15.93;10.50;;;8.30;99.90;8.00;100621.00;;;;4889413;28;113299;-65
2023/03/21 06:15:47;;;;;;;15.70;11.67;;;8.10;99.90;8.00;100623.00;;;;4893923;28;108457;-66
2023/03/21 06:18:13;;;;;;;23.37;12.53;;;8.10;99.90;8.00;100625.00;;;;4891508;28;96306;-66
2023/03/21 06:20:38;;;;;;;18.90;13.20;;;7.90;99.90;8.00;100625.00;;;;4893159;28;88979;-65
2023/03/21 06:23:04;;;;;;;15.60;11.50;;;8.10;99.90;8.00;100629.00;;;;4889977;28;112214;-65
2023/03/21 06:25:30;;;;;;;15.87;11.53;;;8.10;99.90;8.10;100631.00;;;;4892940;28;103684;-65
2023/03/21 06:27:56;;;;;;;14.30;11.93;;;8.10;99.90;8.10;100633.00;;;;4891670;28;118490;-64
2023/03/21 06:30:21;;;;;;;15.97;11.17;;;8.20;99.90;8.10;100625.00;;;;4891084;28;118436;-64
2023/03/21 06:32:47;;;;;;;24.40;11.40;;;8.40;99.90;8.10;100629.00;;;;4891503;28;108885;-63
2023/03/21 06:35:13;;;;;;;22.17;10.60;;;8.20;99.90;8.20;100630.00;;;;4890662;28;87661;-63
2023/03/21 06:37:38;;;;;;;16.33;11.17;;;8.30;99.90;8.20;100625.00;;;;4894141;28;117469;-65
2023/03/21 06:40:06;;;;;;;17.00;9.80;;;8.30;99.90;8.20;100632.00;;;;4891504;28;89943;-63
2023/03/21 06:42:32;;;;;;;15.17;10.33;;;8.30;99.90;8.30;100635.00;;;;4893223;28;88015;-64
2023/03/21 06:44:57;;;;;;;15.60;10.33;;;8.40;99.90;8.30;100630.00;;;;4901161;28;87333;-64
2023/03/21 06:47:23;;;;;;;19.33;10.73;;;8.40;99.90;8.30;100644.00;;;;4891462;28;116841;-64
2023/03/21 06:49:49;;;;;;;14.40;9.77;;;8.40;99.90;8.30;100634.00;;;;4890331;28;117385;-64
2023/03/21 06:52:14;;;;;;;15.70;9.23;;;8.40;99.90;8.40;100637.00;;;;4891631;28;113377;-64
2023/03/21 06:54:41;;;;;;;13.10;9.00;;;8.40;99.90;8.40;100636.00;;;;4890876;28;108235;-64
2023/03/21 06:57:06;;;;;;;15.47;9.50;;;8.50;99.90;8.50;100650.00;;;;4891821;28;88655;-65
2023/03/21 06:59:32;;;;;;;12.10;8.30;;;8.60;99.90;8.50;100642.00;;;;4892314;28;116845;-67
2023/03/21 07:01:58;;;;;;;16.90;10.53;;;8.60;99.90;8.50;100645.00;;;;4893527;28;111045;-65
2023/03/21 07:04:25;;;;;;;15.40;8.87;;;8.60;99.90;8.60;100647.00;;;;4889333;28;108703;-66
2023/03/21 07:06:54;;;;;;;18.27;10.57;;;8.60;99.90;8.60;100651.00;;;;4885265;28;88570;-64
2023/03/21 07:09:23;;;;;;;16.63;9.33;;;8.70;99.90;8.70;100652.00;;;;4891678;28;88885;-65
2023/03/21 07:11:52;;;;;;;12.33;9.23;;;8.70;99.90;8.70;100648.00;;;;4894659;28;87946;-65
2023/03/21 07:14:18;;;;;;;14.97;8.80;;;8.80;99.90;8.70;100651.00;;;;4890524;28;87868;-65
2023/03/21 07:16:44;;;;;;;13.50;9.50;;;8.80;99.90;8.80;100648.00;;;;4892574;28;111640;-66
2023/03/21 07:19:10;;;;;;;13.00;8.73;;;8.80;99.90;8.80;100651.00;;;;4892085;28;87785;-64
2023/03/21 07:21:35;;;;;;;16.23;10.77;;;8.90;99.90;8.90;100653.00;;;;4889424;28;110527;-65
2023/03/21 07:24:01;;;;;;;14.57;9.67;;;8.90;99.90;8.90;100655.00;;;;4887459;28;101248;-65
2023/03/21 07:26:27;;;;;;;13.20;8.57;;;9.00;99.90;9.00;100653.00;;;;4891943;28;88797;-66
2023/03/21 07:28:52;;;;;;;13.27;9.07;;;9.00;99.90;9.10;100661.00;;;;4891408;28;88285;-65
2023/03/21 07:31:19;;;;;;;15.00;8.70;;;9.20;99.90;9.10;100658.00;;;;4891677;28;107753;-65
2023/03/21 07:33:45;;;;;;;14.67;9.80;;;9.20;99.90;9.10;100654.00;;;;4894074;28;87084;-65
2023/03/21 07:36:14;;;;;;;12.30;8.97;;;9.20;99.90;9.10;100658.00;;;;4890656;28;89059;-65
2023/03/21 07:38:41;;;;;;;11.13;8.03;;;9.20;99.90;9.10;100659.00;;;;4889529;28;89026;-65
2023/03/21 07:41:06;;;;;;;12.23;8.27;;;9.20;99.90;9.10;100658.00;;;;4890604;28;88822;-65
2023/03/21 07:43:32;;;;;;;15.00;8.63;;;9.20;99.90;9.20;100662.00;;;;4892294;28;109371;-64
2023/03/21 07:45:59;;;;;;;14.20;8.63;;;9.20;99.90;9.20;100658.00;;;;4889349;28;95984;-64
2023/03/21 07:48:25;;;;;;;14.43;8.87;;;9.30;99.90;9.30;100654.00;;;;4891881;28;88220;-64
2023/03/21 07:50:50;;;;;;;10.57;8.33;;;9.30;99.90;9.40;100659.00;;;;4893874;28;87969;-65
2023/03/21 07:53:16;;;;;;;12.33;8.47;;;9.40;99.90;9.50;100658.00;;;;4893193;28;87962;-66
2023/03/21 07:55:42;;;;;;;11.37;8.10;;;9.50;99.90;9.50;100658.00;;;;4891574;28;108634;-65
2023/03/21 07:58:08;;;;;;;16.73;9.07;;;9.60;99.90;9.60;100655.00;;;;4890554;28;117534;-64
2023/03/21 08:00:34;;;;;;;12.20;8.73;;;9.70;99.90;9.70;100653.00;;;;4889894;28;110623;-64
2023/03/21 08:03:00;;;;;;;13.63;8.43;;;9.70;99.90;9.70;100645.00;;;;4892015;28;107617;-64
2023/03/21 08:05:33;;;;;;;10.73;8.03;;;9.70;99.90;9.70;100656.00;;;;4891059;28;90074;-64
2023/03/21 08:07:59;;;;;;;13.77;8.40;;;9.70;99.90;9.80;100650.00;;;;4891644;28;87896;-65
2023/03/21 08:10:26;;;;;;;16.13;7.93;;;9.80;99.90;9.90;100649.00;;;;4891909;28;88198;-64
2023/03/21 08:12:52;;;;;;;13.07;8.33;;;10.10;99.90;10.10;100653.00;;;;4890390;28;94212;-64
2023/03/21 08:15:18;;;;;;;13.13;7.93;;;10.10;99.90;10.30;100649.00;;;;4891823;28;98500;-64
2023/03/21 08:17:46;;;;;;;12.27;7.07;;;10.30;99.90;10.50;100652.00;;;;4892571;28;89079;-67
2023/03/21 08:20:19;;;;;;;10.70;6.87;;;10.40;99.90;10.60;100650.00;;;;4891254;28;87843;-66
2023/03/21 08:22:46;;;;;;;12.20;7.27;;;10.60;99.90;10.60;100648.00;;;;4889942;28;87091;-65
2023/03/21 08:25:13;;;;;;;10.00;7.60;;;10.70;99.90;10.60;100659.00;;;;4889847;28;88576;-66
2023/03/21 08:27:44;;;;;;;9.73;7.27;;;10.60;99.90;10.60;100656.00;;;;4891774;28;101241;-66
2023/03/21 08:30:13;;;;;;;13.67;6.90;;;10.70;99.90;10.60;100653.00;;;;4892649;28;89891;-66
2023/03/21 08:32:41;;;;;;;15.07;6.87;;;10.70;99.90;10.60;100651.00;;;;4891274;28;102453;-65
2023/03/21 08:35:09;;;;;;;11.00;6.50;;;10.70;99.90;10.60;100648.00;;;;4892442;28;89082;-66
2023/03/21 08:37:36;;;;;;;8.53;5.40;;;10.70;99.90;10.70;100650.00;;;;4888187;28;88950;-66
2023/03/21 08:40:07;;;;;;;10.07;6.97;;;10.70;99.90;10.70;100647.00;;;;4891472;28;87935;-66
2023/03/21 08:42:33;;;;;;;10.30;6.80;;;10.70;99.90;10.70;100648.00;;;;4890360;28;87889;-66
2023/03/21 08:44:58;;;;;;;7.83;6.23;;;10.70;99.90;10.70;100662.00;;;;4893282;28;87861;-67
2023/03/21 08:47:24;;;;;;;12.30;7.67;;;10.70;99.90;10.60;100663.00;;;;4890760;28;87518;-65
2023/03/21 08:49:50;;;;;;;9.83;5.97;;;10.70;99.90;10.50;100648.00;;;;4890254;28;110538;-65
2023/03/21 08:52:15;;;;;;;11.83;6.23;;;10.60;99.90;10.60;100650.00;;;;4888644;28;107917;-66
2023/03/21 08:54:43;;;;;;;7.87;6.40;;;10.60;99.90;10.60;100650.00;;;;4889647;28;119139;-66
2023/03/21 08:57:09;;;;;;;12.60;6.67;;;10.60;99.90;10.80;100652.00;;;;4888316;28;89500;-66
2023/03/21 08:59:36;;;;;;;8.17;6.87;;;10.70;99.90;11.00;100650.00;;;;4891442;28;87626;-65
2023/03/21 09:02:02;;;;;;;8.07;6.10;;;10.90;99.90;11.20;100652.00;;;;4890738;28;87998;-67
2023/03/21 09:04:29;;;;;;;9.43;6.17;;;11.10;99.90;11.30;100653.00;;;;4890382;28;90245;-66
2023/03/21 09:06:55;;;;;;;7.60;5.80;;;11.20;99.90;11.40;100659.00;;;;4889562;28;89997;-65
2023/03/21 09:09:20;;;;;;;6.60;5.43;;;11.30;99.90;11.40;100658.00;;;;4893373;28;87878;-67
2023/03/21 09:11:46;;;;;;;7.37;6.60;;;11.40;99.90;11.40;100657.00;;;;4889809;28;107896;-67
2023/03/21 09:14:12;;;;;;;9.13;6.83;;;11.40;99.90;11.40;100649.00;;;;4888037;28;117674;-67
2023/03/21 09:16:38;;;;;;;8.87;5.93;;;11.40;99.90;11.40;100661.00;;;;4891250;28;117063;-64
2023/03/21 09:19:07;;;;;;;7.53;6.17;;;11.50;99.90;11.50;100655.00;;;;4890200;28;111184;-64
2023/03/21 09:21:33;;;;;;;10.03;6.83;;;11.50;99.90;11.50;100649.00;;;;4889194;28;87720;-65
2023/03/21 09:23:59;;;;;;;11.53;7.40;;;11.50;99.90;11.50;100640.00;;;;4892312;28;102414;-67
2023/03/21 09:26:26;;;;;;;9.03;5.67;;;11.50;99.90;11.50;100643.00;;;;4890759;28;88955;-65
2023/03/21 09:28:53;;;;;;;8.40;5.67;;;11.30;99.90;11.50;100655.00;;;;4891865;28;88148;-65
2023/03/21 09:31:21;;;;;;;11.40;5.67;;;11.50;99.90;11.60;100644.00;;;;4886347;28;87831;-67
2023/03/21 09:33:48;;;;;;;8.30;6.13;;;11.60;99.90;11.60;100645.00;;;;4889673;28;89478;-67
2023/03/21 09:36:17;;;;;;;11.20;7.50;;;11.60;99.90;11.60;100653.00;;;;4891102;28;89804;-67
2023/03/21 09:38:44;;;;;;;8.73;5.83;;;11.70;99.90;11.60;100653.00;;;;4890084;28;88310;-65
2023/03/21 09:41:57;;;;;;;9.77;5.83;;;11.60;99.90;11.50;100642.00;;;;4890055;28;87880;-65
2023/03/21 09:44:36;;;;;;;8.57;5.03;;;11.60;99.90;11.50;100648.00;;;;4890833;28;89437;-67
2023/03/21 09:47:27;;;;;;;9.37;5.87;;;11.60;99.90;11.50;100640.00;;;;4906540;28;89734;-65
2023/03/21 09:50:16;;;;;;;7.27;4.73;;;11.60;99.90;11.50;100650.00;;;;4890685;28;87839;-66
2023/03/21 09:53:19;;;;;;;11.50;6.03;;;11.60;99.90;11.60;100647.00;;;;4890236;28;88072;-65
2023/03/21 09:55:46;;;;;;;8.57;5.50;;;11.60;99.90;11.70;100642.00;;;;4885804;28;88152;-65
2023/03/21 09:58:51;;;;;;;10.30;5.53;;;11.60;99.90;11.70;100626.00;;;;4889268;28;116706;-65
2023/03/21 10:01:40;;;;;;;9.73;6.87;;;11.70;99.90;11.70;100636.00;;;;4885319;28;87855;-65
2023/03/21 10:04:10;;;;;;;11.93;6.67;;;11.70;99.90;11.70;100639.00;;;;4889714;28;90905;-65
2023/03/21 10:06:39;;;;;;;6.97;5.07;;;11.80;99.90;11.70;100631.00;;;;4887824;28;88575;-64
2023/03/21 10:09:14;;;;;;;8.47;5.73;;;11.70;99.90;11.80;100641.00;;;;4883263;28;88685;-67
2023/03/21 10:11:49;;;;;;;9.67;5.33;;;11.80;99.90;11.80;100628.00;;;;4907212;28;89124;-65
2023/03/21 10:14:44;;;;;;;9.33;5.80;;;11.80;99.90;11.80;100629.00;;;;4889555;28;87915;-66
2023/03/21 10:17:49;;;;;;;5.20;4.03;;;11.80;99.90;11.90;100627.00;;;;4886819;28;112337;-67
2023/03/21 10:20:41;;;;;;;10.67;6.13;;;11.90;99.90;12.00;100641.00;;;;4888954;28;87858;-65
2023/03/21 10:23:14;;;;;;;7.77;5.10;;;12.00;99.90;12.10;100624.00;;;;4886251;28;100774;-65
2023/03/21 10:25:57;;;;;;;13.10;5.73;;;12.10;99.90;12.10;100626.00;;;;4893441;28;88442;-65
2023/03/21 10:28:32;;;;;;;7.73;5.03;;;12.20;99.90;12.20;100630.00;;;;4890805;28;89462;-65
2023/03/21 10:31:06;;;;;;;8.20;4.87;;;12.20;99.90;12.20;100621.00;;;;4894728;28;88507;-66
2023/03/21 10:33:43;;;;;;;8.10;4.33;;;12.20;99.90;12.20;100622.00;;;;4892653;28;88278;-66
2023/03/21 10:36:16;;;;;;;7.30;4.07;;;12.20;99.90;12.20;100618.00;;;;4893171;28;87933;-65
2023/03/21 10:38:49;;;;;;;8.63;5.43;;;12.20;99.90;12.20;100616.00;;;;4893746;28;89681;-65
2023/03/21 10:41:15;;;;;;;10.93;4.83;;;12.20;99.90;12.10;100614.00;;;;4894881;28;89019;-66
2023/03/21 10:43:44;;;;;;;7.97;4.53;;;12.20;99.90;12.10;100626.00;;;;4893761;28;110115;-66
2023/03/21 10:46:16;;;;;;;9.87;5.70;;;12.10;99.90;12.20;100621.00;;;;4891985;28;88084;-66
2023/03/21 10:48:45;;;;;;;7.20;5.07;;;12.20;99.90;12.10;100623.00;;;;4894187;28;88153;-66
2023/03/21 10:51:18;;;;;;;5.30;4.27;;;12.20;99.90;12.10;100622.00;;;;4893609;28;87938;-67
2023/03/21 10:54:03;;;;;;;7.90;4.40;;;12.10;99.90;12.10;100623.00;;;;4892300;28;88064;-65
2023/03/21 10:56:35;;;;;;;7.57;5.17;;;12.10;99.90;12.10;100613.00;;;;4887133;28;100209;-65
2023/03/21 10:59:02;;;;;;;5.63;4.30;;;12.10;99.90;12.20;100622.00;;;;4887624;28;89122;-65
2023/03/21 11:01:41;;;;;;;6.93;3.77;;;12.20;99.90;12.20;100626.00;;;;4908669;28;87781;-64